createdAt,value
2018-09-06T00:01:41.630Z,25.27
2018-09-06T00:04:14.878Z,26.55
2018-09-06T00:06:48.022Z,27.75
2018-09-06T00:09:21.165Z,25.32
2018-09-06T00:11:54.285Z,25.20
2018-09-06T00:14:27.454Z,25.27
2018-09-06T00:17:00.570Z,26.75
2018-09-06T00:19:33.774Z,21.57
2018-09-06T00:22:06.869Z,21.40
2018-09-06T00:24:40.077Z,22.65
2018-09-06T00:27:13.230Z,21.45
2018-09-06T00:29:46.394Z,24.95
2018-09-06T00:32:19.650Z,24.02
2018-09-06T00:34:52.814Z,22.48
2018-09-06T00:37:25.945Z,23.83
2018-09-06T00:39:59.122Z,21.48
2018-09-06T00:42:32.312Z,25.40
2018-09-06T00:45:05.538Z,23.20
2018-09-06T00:47:38.787Z,20.25
2018-09-06T00:50:18.924Z,26.42
2018-09-06T00:52:52.765Z,20.88
2018-09-06T00:55:25.893Z,27.20
2018-09-06T00:57:59.079Z,23.18
2018-09-06T01:00:32.284Z,24.95
2018-09-06T01:03:05.529Z,22.87
2018-09-06T01:05:38.743Z,24.05
2018-09-06T01:08:11.882Z,27.50
2018-09-06T01:10:44.992Z,28.35
2018-09-06T01:13:18.132Z,22.73
2018-09-06T01:15:51.252Z,24.75
2018-09-06T01:18:24.421Z,26.93
2018-09-06T01:20:57.591Z,31.50
2018-09-06T01:23:30.802Z,20.70
2018-09-06T01:26:03.973Z,28.10
2018-09-06T01:28:37.156Z,24.55
2018-09-06T01:31:10.250Z,26.30
2018-09-06T01:33:43.412Z,23.65
2018-09-06T01:36:22.369Z,29.23
2018-09-06T01:38:55.572Z,24.18
2018-09-06T01:41:28.709Z,25.15
2018-09-06T01:44:01.868Z,24.65
2018-09-06T01:49:22.261Z,24.92
2018-09-06T01:51:55.457Z,22.48
2018-09-06T01:54:28.657Z,25.75
2018-09-06T01:57:01.846Z,24.30
2018-09-06T01:59:39.225Z,24.67
2018-09-06T02:02:12.396Z,29.15
2018-09-06T02:04:45.594Z,23.83
2018-09-06T02:07:18.721Z,25.02
2018-09-06T02:09:51.878Z,21.23
2018-09-06T02:12:25.030Z,23.57
2018-09-06T02:14:58.205Z,23.80
2018-09-06T02:17:31.365Z,22.62
2018-09-06T02:20:04.639Z,27.17
2018-09-06T02:22:37.786Z,28.55
2018-09-06T02:25:11.090Z,28.27
2018-09-06T02:27:44.223Z,25.35
2018-09-06T02:30:17.505Z,23.55
2018-09-06T02:32:50.644Z,27.20
2018-09-06T02:35:23.831Z,26.02
2018-09-06T02:37:56.958Z,24.12
2018-09-06T02:40:35.846Z,31.48
2018-09-06T02:43:10.693Z,24.92
2018-09-06T02:45:44.334Z,22.20
2018-09-06T02:48:17.505Z,27.73
2018-09-06T02:50:56.258Z,26.27
2018-09-06T02:53:31.121Z,29.90
2018-09-06T02:56:04.273Z,25.48
2018-09-06T02:58:37.773Z,27.48
2018-09-06T03:01:10.949Z,27.07
2018-09-06T03:03:44.234Z,25.57
2018-09-06T03:06:17.479Z,23.02
2018-09-06T03:08:50.674Z,27.70
2018-09-06T03:11:28.095Z,28.85
2018-09-06T03:14:01.284Z,30.15
2018-09-06T03:16:34.437Z,32.85
2018-09-06T03:19:07.591Z,32.42
2018-09-06T03:21:40.825Z,31.00
2018-09-06T03:24:13.982Z,32.93
2018-09-06T03:26:47.192Z,33.73
2018-09-06T03:29:20.332Z,37.25
2018-09-06T03:31:53.515Z,34.27
2018-09-06T03:34:26.671Z,35.60
2018-09-06T03:36:59.819Z,35.70
2018-09-06T03:39:32.968Z,33.35
2018-09-06T03:42:06.074Z,34.08
2018-09-06T03:44:39.258Z,29.23
2018-09-06T03:47:12.449Z,36.40
2018-09-06T03:49:45.606Z,31.17
2018-09-06T03:52:18.751Z,35.17
2018-09-06T03:54:51.977Z,26.87
2018-09-06T03:57:25.118Z,30.92
2018-09-06T03:59:58.260Z,33.90
2018-09-06T04:02:31.412Z,28.20
2018-09-06T04:05:04.679Z,31.27
2018-09-06T04:07:37.866Z,23.42
2018-09-06T04:10:11.084Z,34.43
2018-09-06T04:12:44.224Z,37.38
2018-09-06T04:15:17.392Z,33.02
2018-09-06T04:17:50.609Z,29.10
2018-09-06T04:20:23.859Z,32.67
2018-09-06T04:22:57.114Z,32.37
2018-09-06T04:25:30.259Z,29.40
2018-09-06T04:28:03.459Z,32.00
2018-09-06T04:30:36.761Z,26.67
2018-09-06T04:33:09.889Z,36.97
2018-09-06T04:35:43.096Z,34.88
2018-09-06T04:38:16.242Z,38.20
2018-09-06T04:40:49.444Z,39.03
2018-09-06T04:43:22.588Z,36.23
2018-09-06T04:45:55.790Z,34.25
2018-09-06T04:48:28.954Z,31.97
2018-09-06T04:51:02.070Z,34.13
2018-09-06T04:53:35.391Z,36.13
2018-09-06T04:56:08.530Z,32.47
2018-09-06T04:58:41.957Z,35.10
2018-09-06T05:01:15.138Z,29.82
2018-09-06T05:03:48.298Z,32.53
2018-09-06T05:06:21.458Z,32.85
2018-09-06T05:08:54.662Z,29.50
2018-09-06T05:11:27.901Z,36.90
2018-09-06T05:14:01.050Z,38.17
2018-09-06T05:16:34.200Z,37.67
2018-09-06T05:19:07.408Z,32.63
2018-09-06T05:21:40.547Z,36.85
2018-09-06T05:24:13.687Z,36.33
2018-09-06T05:26:46.847Z,35.45
2018-09-06T05:29:20.011Z,40.05
2018-09-06T05:31:53.409Z,33.15
2018-09-06T05:34:26.564Z,31.68
2018-09-06T05:36:59.744Z,35.83
2018-09-06T05:39:33.070Z,40.48
2018-09-06T05:42:06.400Z,39.08
2018-09-06T05:44:39.596Z,32.90
2018-09-06T05:47:12.806Z,33.90
2018-09-06T05:49:46.034Z,36.80
2018-09-06T05:52:19.233Z,36.85
2018-09-06T05:54:52.406Z,35.30
2018-09-06T05:57:25.519Z,36.63
2018-09-06T05:59:58.768Z,37.23
2018-09-06T06:02:38.745Z,30.35
2018-09-06T06:05:12.064Z,36.70
2018-09-06T06:08:02.224Z,32.58
2018-09-06T06:10:35.444Z,35.00
2018-09-06T06:13:08.598Z,37.08
2018-09-06T06:15:41.801Z,33.18
2018-09-06T06:18:14.897Z,33.53
2018-09-06T06:20:48.078Z,37.35
2018-09-06T06:23:21.222Z,31.60
2018-09-06T06:25:54.348Z,38.63
2018-09-06T06:28:27.566Z,36.28
2018-09-06T06:31:00.764Z,35.25
2018-09-06T06:33:33.923Z,33.58
2018-09-06T06:36:07.184Z,38.85
2018-09-06T06:38:40.366Z,37.35
2018-09-06T06:41:13.496Z,44.90
2018-09-06T06:43:46.648Z,41.50
2018-09-06T06:46:19.767Z,36.17
2018-09-06T06:48:52.964Z,38.92
2018-09-06T06:51:26.206Z,36.35
2018-09-06T06:53:59.453Z,37.45
2018-09-06T06:56:32.596Z,35.25
2018-09-06T06:59:05.797Z,33.98
2018-09-06T07:01:38.948Z,38.88
2018-09-06T07:04:12.139Z,37.17
2018-09-06T07:06:45.273Z,35.35
2018-09-06T07:09:18.477Z,34.08
2018-09-06T07:11:51.664Z,37.55
2018-09-06T07:14:24.957Z,33.83
2018-09-06T07:16:58.098Z,33.33
2018-09-06T07:19:31.328Z,36.53
2018-09-06T07:22:04.579Z,35.48
2018-09-06T07:24:37.773Z,34.75
2018-09-06T07:27:10.999Z,34.48
2018-09-06T07:29:44.170Z,33.70
2018-09-06T07:32:17.376Z,30.10
2018-09-06T07:34:50.583Z,31.30
2018-09-06T07:37:23.731Z,29.02
2018-09-06T07:39:56.913Z,30.05
2018-09-06T07:42:30.138Z,25.80
2018-09-06T07:45:03.744Z,27.52
2018-09-06T07:47:36.870Z,27.25
2018-09-06T07:50:10.141Z,24.07
2018-09-06T07:52:43.265Z,25.27
2018-09-06T07:55:16.412Z,31.73
2018-09-06T07:57:49.651Z,31.60
2018-09-06T08:00:23.006Z,38.23
2018-09-06T08:02:56.250Z,28.35
2018-09-06T08:05:29.420Z,26.73
2018-09-06T08:08:02.628Z,23.02
2018-09-06T08:10:35.836Z,33.38
2018-09-06T08:13:09.030Z,20.70
2018-09-06T08:15:42.225Z,26.10
2018-09-06T08:18:15.397Z,25.27
2018-09-06T08:20:48.639Z,27.25
2018-09-06T08:23:21.873Z,20.00
2018-09-06T08:25:55.105Z,28.07
2018-09-06T08:28:28.321Z,22.20
2018-09-06T08:31:01.699Z,21.30
2018-09-06T08:33:34.955Z,19.27
2018-09-06T08:36:29.188Z,19.25
2018-09-06T08:39:02.581Z,21.93
2018-09-06T08:41:36.003Z,17.73
2018-09-06T08:44:09.410Z,19.57
2018-09-06T08:46:42.701Z,18.82
2018-09-06T08:49:15.904Z,17.50
2018-09-06T08:51:49.060Z,19.67
2018-09-06T08:54:22.261Z,16.67
2018-09-06T08:56:55.435Z,16.40
2018-09-06T08:59:28.703Z,17.25
2018-09-06T09:02:02.036Z,18.40
2018-09-06T09:04:35.757Z,15.53
2018-09-06T09:07:08.909Z,15.70
2018-09-06T09:09:42.147Z,16.60
2018-09-06T09:12:15.515Z,15.68
2018-09-06T09:14:48.671Z,13.90
2018-09-06T09:17:21.984Z,15.68
2018-09-06T09:19:55.167Z,14.47
2018-09-06T09:22:28.566Z,14.78
2018-09-06T09:25:01.658Z,15.32
2018-09-06T09:27:35.277Z,15.30
2018-09-06T09:30:08.739Z,19.02
2018-09-06T09:32:42.050Z,18.45
2018-09-06T09:35:15.201Z,14.83
2018-09-06T09:37:48.451Z,40.15
2018-09-06T09:40:21.664Z,15.83
2018-09-06T09:42:54.905Z,18.42
2018-09-06T09:45:28.117Z,18.80
2018-09-06T09:48:01.355Z,14.20
2018-09-06T09:53:07.276Z,13.53
2018-09-06T09:55:40.480Z,14.73
2018-09-06T09:58:13.709Z,14.28
2018-09-06T10:00:46.937Z,13.10
2018-09-06T10:03:25.618Z,13.55
2018-09-06T10:07:06.281Z,13.28
2018-09-06T10:09:39.544Z,13.55
2018-09-06T10:12:12.758Z,13.78
2018-09-06T10:14:45.953Z,14.95
2018-09-06T10:17:19.143Z,14.05
2018-09-06T10:19:52.313Z,23.05
2018-09-06T10:22:25.514Z,15.13
2018-09-06T10:24:58.716Z,24.45
2018-09-06T10:27:32.099Z,14.33
2018-09-06T10:30:05.341Z,13.53
2018-09-06T10:32:38.568Z,12.13
2018-09-06T10:35:11.789Z,13.62
2018-09-06T10:37:45.194Z,13.30
2018-09-06T10:40:18.441Z,14.40
2018-09-06T10:42:51.677Z,11.93
2018-09-06T10:45:24.896Z,12.60
2018-09-06T10:47:58.163Z,11.97
2018-09-06T10:50:31.274Z,10.53
2018-09-06T10:53:04.474Z,13.58
2018-09-06T10:55:37.674Z,14.07
2018-09-06T10:58:10.894Z,12.35
2018-09-06T11:00:44.146Z,12.15
2018-09-06T11:03:17.329Z,13.68
2018-09-06T11:05:50.550Z,12.65
2018-09-06T11:08:23.738Z,15.18
2018-09-06T11:10:56.905Z,18.12
2018-09-06T11:13:30.170Z,12.98
2018-09-06T11:16:03.389Z,11.83
2018-09-06T11:18:36.604Z,12.60
2018-09-06T11:21:09.979Z,12.13
2018-09-06T11:23:43.079Z,11.35
2018-09-06T11:26:16.349Z,12.88
2018-09-06T11:28:49.518Z,11.43
2018-09-06T11:31:22.715Z,15.70
2018-09-06T11:33:56.082Z,12.73
2018-09-06T11:36:29.333Z,11.38
2018-09-06T11:39:02.781Z,11.48
2018-09-06T11:41:36.341Z,10.65
2018-09-06T11:44:09.516Z,11.73
2018-09-06T11:46:42.712Z,11.20
2018-09-06T11:49:15.994Z,11.28
2018-09-06T11:51:49.211Z,10.63
2018-09-06T11:54:22.556Z,10.63
2018-09-06T11:56:55.790Z,10.98
2018-09-06T11:59:29.168Z,13.28
2018-09-06T12:02:02.455Z,14.05
2018-09-06T12:04:35.733Z,10.68
2018-09-06T12:07:09.040Z,9.10
2018-09-06T12:09:42.341Z,8.78
2018-09-06T12:12:15.561Z,11.55
2018-09-06T12:14:48.766Z,10.23
2018-09-06T12:17:21.959Z,11.95
2018-09-06T12:19:55.304Z,8.40
2018-09-06T12:22:28.545Z,10.03
2018-09-06T12:25:02.871Z,8.80
2018-09-06T12:27:37.120Z,9.93
2018-09-06T12:30:11.211Z,10.78
2018-09-06T12:32:44.455Z,27.10
2018-09-06T12:35:18.366Z,12.93
2018-09-06T12:37:52.617Z,10.82
2018-09-06T12:40:26.735Z,10.98
2018-09-06T12:43:00.527Z,9.95
2018-09-06T12:45:33.735Z,10.48
2018-09-06T12:48:07.017Z,9.95
2018-09-06T12:50:40.249Z,9.48
2018-09-06T12:53:13.500Z,9.45
2018-09-06T12:55:46.664Z,9.55
2018-09-06T12:58:19.945Z,9.43
2018-09-06T13:00:53.587Z,9.83
2018-09-06T13:03:26.991Z,10.55
2018-09-06T13:06:00.183Z,9.15
2018-09-06T13:08:33.429Z,9.23
2018-09-06T13:11:06.698Z,9.45
2018-09-06T13:13:40.011Z,10.10
2018-09-06T13:16:13.202Z,10.28
2018-09-06T13:18:46.532Z,10.25
2018-09-06T13:21:19.601Z,9.33
2018-09-06T13:23:52.787Z,8.88
2018-09-06T13:26:26.001Z,9.75
2018-09-06T13:28:59.181Z,8.85
2018-09-06T13:31:32.404Z,10.20
2018-09-06T13:34:05.633Z,9.85
2018-09-06T13:36:38.854Z,8.80
2018-09-06T13:39:12.332Z,9.23
2018-09-06T13:41:45.541Z,9.63
2018-09-06T13:44:21.571Z,9.20
2018-09-06T13:46:54.740Z,9.58
2018-09-06T13:49:28.038Z,9.18
2018-09-06T13:52:01.298Z,8.35
2018-09-06T13:54:34.489Z,8.45
2018-09-06T13:57:08.168Z,7.78
2018-09-06T13:59:41.432Z,8.45
2018-09-06T14:02:14.571Z,8.38
2018-09-06T14:04:47.906Z,7.67
2018-09-06T14:07:21.156Z,6.55
2018-09-06T14:09:54.372Z,7.33
2018-09-06T14:12:27.586Z,7.47
2018-09-06T14:15:00.804Z,7.65
2018-09-06T14:17:34.024Z,7.45
2018-09-06T14:20:07.222Z,7.70
2018-09-06T14:22:40.433Z,9.85
2018-09-06T14:25:13.650Z,10.75
2018-09-06T14:27:46.850Z,10.30
2018-09-06T14:30:27.099Z,8.60
2018-09-06T14:33:00.284Z,7.83
2018-09-06T14:35:33.426Z,10.28
2018-09-06T14:38:06.645Z,18.57
2018-09-06T14:40:39.786Z,12.53
2018-09-06T14:43:13.024Z,11.03
2018-09-06T14:45:46.201Z,10.93
2018-09-06T14:48:19.402Z,10.08
2018-09-06T14:50:52.727Z,12.47
2018-09-06T14:53:25.959Z,10.32
2018-09-06T14:55:59.150Z,9.78
2018-09-06T14:58:32.361Z,11.10
2018-09-06T15:01:05.637Z,9.50
2018-09-06T15:03:38.904Z,9.50
2018-09-06T15:06:18.831Z,9.43
2018-09-06T15:08:52.028Z,10.75
2018-09-06T15:11:25.207Z,9.83
2018-09-06T15:13:58.457Z,9.50
2018-09-06T15:16:31.737Z,19.10
2018-09-06T15:19:05.389Z,10.78
2018-09-06T15:21:38.569Z,11.03
2018-09-06T15:24:11.815Z,10.15
2018-09-06T15:26:45.039Z,10.30
2018-09-06T15:29:18.299Z,10.75
2018-09-06T15:31:51.435Z,16.42
2018-09-06T15:34:25.133Z,13.13
2018-09-06T15:36:58.357Z,9.48
2018-09-06T15:39:31.598Z,11.30
2018-09-06T15:42:04.849Z,13.85
2018-09-06T15:44:38.089Z,17.35
2018-09-06T15:47:11.403Z,11.80
2018-09-06T15:49:44.780Z,11.93
2018-09-06T15:52:17.861Z,11.53
2018-09-06T15:54:51.098Z,10.23
2018-09-06T15:57:24.473Z,10.45
2018-09-06T15:59:57.723Z,10.05
2018-09-06T16:02:30.922Z,9.55
2018-09-06T16:05:04.165Z,11.43
2018-09-06T16:07:37.412Z,10.68
2018-09-06T16:10:10.669Z,11.18
2018-09-06T16:12:43.919Z,10.58
2018-09-06T16:15:17.251Z,11.83
2018-09-06T16:17:50.465Z,10.03
2018-09-06T16:20:23.677Z,10.60
2018-09-06T16:22:57.009Z,9.90
2018-09-06T16:25:30.258Z,10.05
2018-09-06T16:28:03.467Z,9.50
2018-09-06T16:30:36.841Z,9.50
2018-09-06T16:33:10.058Z,8.30
2018-09-06T16:35:43.374Z,9.28
2018-09-06T16:38:16.634Z,9.93
2018-09-06T16:40:49.906Z,10.18
2018-09-06T16:43:23.224Z,10.70
2018-09-06T16:45:56.619Z,8.18
2018-09-06T16:48:29.987Z,11.20
2018-09-06T16:51:03.478Z,8.73
2018-09-06T16:53:36.696Z,10.08
2018-09-06T16:56:09.949Z,9.43
2018-09-06T16:58:43.227Z,11.12
2018-09-06T17:01:16.550Z,11.08
2018-09-06T17:03:51.119Z,11.40
2018-09-06T17:06:27.311Z,10.53
2018-09-06T17:09:00.546Z,9.85
2018-09-06T17:11:33.845Z,8.68
2018-09-06T17:14:07.160Z,10.23
2018-09-06T17:16:40.473Z,11.22
2018-09-06T17:19:13.773Z,12.35
2018-09-06T17:21:47.027Z,9.95
2018-09-06T17:24:20.286Z,12.05
2018-09-06T17:26:53.830Z,11.12
2018-09-06T17:29:27.133Z,10.68
2018-09-06T17:32:00.426Z,11.75
2018-09-06T17:34:33.670Z,10.20
2018-09-06T17:37:06.828Z,8.85
2018-09-06T17:39:40.107Z,10.32
2018-09-06T17:42:13.284Z,10.88
2018-09-06T17:44:46.567Z,9.08
2018-09-06T17:47:19.746Z,9.55
2018-09-06T17:49:53.019Z,9.30
2018-09-06T17:52:26.293Z,8.68
2018-09-06T17:54:59.520Z,7.50
2018-09-06T17:57:32.779Z,9.65
2018-09-06T18:00:06.797Z,9.90
2018-09-06T18:02:40.131Z,9.93
2018-09-06T18:05:13.438Z,10.03
2018-09-06T18:07:46.690Z,11.35
2018-09-06T18:12:42.816Z,9.45
2018-09-06T18:15:16.042Z,12.15
2018-09-06T18:17:49.398Z,11.15
2018-09-06T18:20:22.650Z,10.15
2018-09-06T18:22:55.920Z,9.68
2018-09-06T18:25:29.388Z,9.35
2018-09-06T18:28:02.759Z,10.00
2018-09-06T18:30:36.162Z,10.98
2018-09-06T18:33:09.419Z,11.25
2018-09-06T18:35:42.797Z,9.98
2018-09-06T18:38:16.080Z,10.65
2018-09-06T18:40:49.366Z,11.30
2018-09-06T18:43:22.544Z,12.20
2018-09-06T18:45:55.829Z,12.55
2018-09-06T18:48:29.057Z,10.70
2018-09-06T18:51:02.380Z,10.75
2018-09-06T18:53:35.662Z,11.57
2018-09-06T18:56:09.121Z,10.38
2018-09-06T18:58:42.393Z,10.30
2018-09-06T19:01:14.745Z,10.35
2018-09-06T19:03:58.474Z,10.05
2018-09-06T19:06:30.906Z,11.08
2018-09-06T19:09:04.584Z,11.73
2018-09-06T19:11:36.957Z,11.40
2018-09-06T19:14:09.293Z,11.93
2018-09-06T19:16:41.672Z,10.58
2018-09-06T19:19:14.014Z,10.00
2018-09-06T19:21:46.459Z,11.85
2018-09-06T19:24:18.809Z,13.75
2018-09-06T19:26:51.169Z,13.72
2018-09-06T19:29:23.524Z,12.73
2018-09-06T19:31:55.977Z,13.45
2018-09-06T19:34:28.218Z,12.60
2018-09-06T19:37:00.555Z,13.98
2018-09-06T19:39:32.918Z,14.03
2018-09-06T19:42:05.314Z,13.25
2018-09-06T19:44:37.654Z,12.82
2018-09-06T19:47:09.958Z,13.25
2018-09-06T19:49:42.425Z,14.07
2018-09-06T19:52:14.793Z,12.47
2018-09-06T19:54:47.181Z,12.82
2018-09-06T19:57:19.582Z,12.35
2018-09-06T19:59:52.016Z,12.20
2018-09-06T20:02:24.378Z,12.98
2018-09-06T20:04:57.226Z,12.40
2018-09-06T20:07:29.604Z,12.55
2018-09-06T20:10:02.035Z,13.18
2018-09-06T20:12:34.540Z,14.00
2018-09-06T20:15:07.110Z,13.40
2018-09-06T20:17:39.468Z,14.10
2018-09-06T20:20:11.809Z,16.60
2018-09-06T20:22:44.134Z,14.68
2018-09-06T20:25:16.435Z,17.12
2018-09-06T20:27:48.821Z,17.45
2018-09-06T20:30:21.144Z,14.63
2018-09-06T20:32:53.480Z,15.23
2018-09-06T20:35:25.848Z,16.45
2018-09-06T20:37:58.237Z,14.10
2018-09-06T20:40:30.562Z,12.47
2018-09-06T20:43:02.971Z,11.80
2018-09-06T20:45:35.287Z,13.10
2018-09-06T20:48:14.605Z,13.32
2018-09-06T20:50:47.017Z,15.03
2018-09-06T20:53:19.419Z,12.73
2018-09-06T20:55:51.794Z,11.78
2018-09-06T20:58:24.090Z,14.15
2018-09-06T21:00:56.486Z,12.55
2018-09-06T21:03:28.894Z,14.95
2018-09-06T21:06:01.341Z,14.13
2018-09-06T21:08:33.666Z,13.98
2018-09-06T21:11:06.083Z,15.05
2018-09-06T21:13:38.497Z,13.10
2018-09-06T21:16:10.889Z,15.93
2018-09-06T21:18:43.252Z,14.40
2018-09-06T21:21:15.710Z,14.28
2018-09-06T21:23:48.132Z,14.70
2018-09-06T21:26:20.552Z,12.98
2018-09-06T21:28:52.941Z,14.03
2018-09-06T21:31:25.282Z,15.15
2018-09-06T21:33:57.600Z,15.32
2018-09-06T21:36:29.957Z,14.23
2018-09-06T21:39:02.387Z,15.98
2018-09-06T21:41:34.720Z,17.62
2018-09-06T21:44:07.366Z,13.43
2018-09-06T21:46:40.062Z,19.07
2018-09-06T21:49:12.384Z,15.20
2018-09-06T21:51:44.709Z,17.80
2018-09-06T21:54:17.009Z,16.27
2018-09-06T21:56:49.408Z,18.15
2018-09-06T21:59:21.713Z,17.87
2018-09-06T22:01:54.021Z,18.15
2018-09-06T22:04:26.344Z,18.48
2018-09-06T22:06:58.648Z,20.05
2018-09-06T22:09:30.956Z,21.45
2018-09-06T22:12:03.334Z,20.08
2018-09-06T22:14:35.625Z,23.38
2018-09-06T22:17:07.923Z,19.27
2018-09-06T22:19:40.296Z,21.82
2018-09-06T22:22:12.599Z,22.15
2018-09-06T22:24:44.956Z,26.48
2018-09-06T22:27:17.246Z,23.50
2018-09-06T22:29:49.669Z,25.20
2018-09-06T22:32:21.937Z,21.97
2018-09-06T22:34:54.304Z,22.40
2018-09-06T22:37:26.681Z,20.23
2018-09-06T22:39:59.050Z,24.47
2018-09-06T22:42:31.355Z,24.40
2018-09-06T22:45:03.709Z,18.95
2018-09-06T22:47:36.061Z,24.60
2018-09-06T22:50:08.436Z,25.08
2018-09-06T22:52:40.700Z,19.20
2018-09-06T22:55:13.085Z,23.12
2018-09-06T22:57:45.337Z,20.25
2018-09-06T23:00:20.248Z,22.82
2018-09-06T23:02:58.184Z,21.68
2018-09-06T23:05:30.901Z,22.65
2018-09-06T23:08:03.552Z,21.73
2018-09-06T23:10:35.841Z,20.95
2018-09-06T23:13:08.187Z,23.45
2018-09-06T23:15:40.425Z,25.95
2018-09-06T23:18:12.709Z,26.40
2018-09-06T23:20:44.980Z,26.82
2018-09-06T23:23:17.329Z,21.75
2018-09-06T23:25:49.632Z,26.02
2018-09-06T23:28:21.932Z,26.55
2018-09-06T23:30:54.183Z,23.18
2018-09-06T23:33:26.493Z,23.95
2018-09-06T23:35:58.805Z,28.38
2018-09-06T23:38:31.124Z,23.05
2018-09-06T23:41:03.413Z,26.10
2018-09-06T23:43:35.742Z,26.48
2018-09-06T23:46:08.043Z,25.32
2018-09-06T23:48:40.312Z,26.37
2018-09-06T23:51:12.538Z,24.47
2018-09-06T23:53:44.813Z,22.85
2018-09-06T23:56:17.114Z,25.65
2018-09-06T23:58:49.392Z,24.55
